createdAt,value
2019-04-22T00:01:04.836Z,9.60
2019-04-22T00:03:37.740Z,9.60
2019-04-22T00:06:25.967Z,9.50
2019-04-22T00:08:57.688Z,9.50
2019-04-22T00:11:29.181Z,9.50
2019-04-22T00:13:56.719Z,9.40
2019-04-22T00:16:32.068Z,9.50
2019-04-22T00:21:35.219Z,9.50
2019-04-22T00:23:59.078Z,9.40
2019-04-22T00:29:20.805Z,9.40
2019-04-22T00:31:37.861Z,9.40
2019-04-22T00:34:06.148Z,9.50
2019-04-22T00:36:40.380Z,9.40
2019-04-22T00:39:18.465Z,9.30
2019-04-22T00:41:44.067Z,9.30
2019-04-22T00:44:15.324Z,9.30
2019-04-22T00:46:44.447Z,9.30
2019-04-22T00:49:52.899Z,9.30
2019-04-22T00:51:44.776Z,9.30
2019-04-22T00:54:13.645Z,9.30
2019-04-22T00:56:42.203Z,9.30
2019-04-22T00:59:15.623Z,9.30
2019-04-22T01:01:46.412Z,9.20
2019-04-22T01:04:19.911Z,9.20
2019-04-22T01:06:39.823Z,9.20
2019-04-22T01:09:31.312Z,9.10
2019-04-22T01:11:44.953Z,9.20
2019-04-22T01:14:20.296Z,9.10
2019-04-22T01:16:50.891Z,9.10
2019-04-22T01:19:12.301Z,9.10
2019-04-22T01:21:44.826Z,9.10
2019-04-22T01:24:18.691Z,9.00
2019-04-22T01:26:43.420Z,9.00
2019-04-22T01:29:12.663Z,9.00
2019-04-22T01:31:31.546Z,9.00
2019-04-22T01:34:33.454Z,9.00
2019-04-22T01:37:08.000Z,9.00
2019-04-22T01:39:43.940Z,8.90
2019-04-22T01:42:10.482Z,8.90
2019-04-22T01:44:46.621Z,8.90
2019-04-22T01:47:21.352Z,8.90
2019-04-22T01:49:46.166Z,8.80
2019-04-22T01:52:15.770Z,8.80
2019-04-22T01:54:52.528Z,8.90
2019-04-22T01:57:18.752Z,8.80
2019-04-22T01:59:44.307Z,8.80
2019-04-22T02:02:25.523Z,8.70
2019-04-22T02:04:53.663Z,8.70
2019-04-22T02:07:28.003Z,8.60
2019-04-22T02:09:58.469Z,8.60
2019-04-22T02:14:50.696Z,8.60
2019-04-22T02:17:26.580Z,8.70
2019-04-22T02:20:02.610Z,8.70
2019-04-22T02:22:44.255Z,8.60
2019-04-22T02:24:58.847Z,8.60
2019-04-22T02:27:32.538Z,8.50
2019-04-22T02:29:51.990Z,8.50
2019-04-22T02:35:25.969Z,8.40
2019-04-22T02:37:32.287Z,8.40
2019-04-22T02:40:03.677Z,8.40
2019-04-22T02:42:24.618Z,8.30
2019-04-22T02:44:57.952Z,8.30
2019-04-22T02:47:27.754Z,8.40
2019-04-22T02:50:05.240Z,8.30
2019-04-22T02:55:08.213Z,8.40
2019-04-22T02:57:39.766Z,8.30
2019-04-22T03:00:14.121Z,8.20
2019-04-22T03:05:13.308Z,8.20
2019-04-22T03:07:42.437Z,8.20
2019-04-22T03:10:10.039Z,8.30
2019-04-22T03:12:35.246Z,8.30
2019-04-22T03:15:07.317Z,8.30
2019-04-22T03:17:47.359Z,8.20
2019-04-22T03:22:46.867Z,8.20
2019-04-22T03:25:43.126Z,8.20
2019-04-22T03:37:50.513Z,8.40
2019-04-22T03:40:28.598Z,8.40
2019-04-22T03:45:28.406Z,8.40
2019-04-22T03:47:53.588Z,8.40
2019-04-22T03:50:20.739Z,8.40
2019-04-22T03:52:50.413Z,8.40
2019-04-22T03:55:34.329Z,8.50
2019-04-22T03:57:50.141Z,8.50
2019-04-22T04:00:28.454Z,8.50
2019-04-22T04:02:54.825Z,8.60
2019-04-22T04:05:33.444Z,8.70
2019-04-22T04:07:57.725Z,8.70
2019-04-22T04:13:01.926Z,8.70
2019-04-22T04:15:23.568Z,8.80
2019-04-22T04:17:56.963Z,8.90
2019-04-22T04:25:38.498Z,8.90
2019-04-22T04:30:30.157Z,9.00
2019-04-22T04:32:59.040Z,9.00
2019-04-22T04:37:56.030Z,9.20
2019-04-22T04:43:03.233Z,9.40
2019-04-22T04:45:51.214Z,10.30
2019-04-22T04:47:54.581Z,11.90
2019-04-22T04:50:27.348Z,13.20
2019-04-22T04:53:06.102Z,14.10
2019-04-22T04:55:30.467Z,14.90
2019-04-22T04:58:29.681Z,15.50
2019-04-22T05:00:48.655Z,15.70
2019-04-22T05:03:00.602Z,16.10
2019-04-22T05:05:35.295Z,16.50
2019-04-22T05:18:09.230Z,17.20
2019-04-22T05:23:01.244Z,18.50
2019-04-22T05:25:36.851Z,18.30
2019-04-22T05:28:08.762Z,18.10
2019-04-22T05:30:57.640Z,18.00
2019-04-22T05:33:08.720Z,18.70
2019-04-22T05:35:37.852Z,18.80
2019-04-22T05:38:20.142Z,18.60
2019-04-22T05:40:34.900Z,18.10
2019-04-22T05:43:09.674Z,18.00
2019-04-22T05:45:36.965Z,18.00
2019-04-22T05:48:13.628Z,17.60
2019-04-22T05:50:45.352Z,18.00
2019-04-22T05:53:07.234Z,17.10
2019-04-22T05:58:15.630Z,14.80
2019-04-22T06:01:11.451Z,14.00
2019-04-22T06:03:16.544Z,13.50
2019-04-22T06:05:47.209Z,13.10
2019-04-22T06:08:19.703Z,12.70
2019-04-22T06:10:53.110Z,12.70
2019-04-22T06:13:18.155Z,12.70
2019-04-22T06:15:44.017Z,12.80
2019-04-22T06:18:27.499Z,12.80
2019-04-22T06:26:35.896Z,12.60
2019-04-22T06:28:51.922Z,12.40
2019-04-22T06:31:27.848Z,12.40
2019-04-22T06:33:48.512Z,12.50
2019-04-22T06:36:27.623Z,12.60
2019-04-22T06:38:45.909Z,12.80
2019-04-22T06:41:24.824Z,12.80
2019-04-22T06:43:56.314Z,12.90
2019-04-22T06:46:25.460Z,13.00
2019-04-22T06:48:52.403Z,13.00
2019-04-22T06:51:19.809Z,13.10
2019-04-22T06:53:48.017Z,13.10
2019-04-22T06:56:25.054Z,13.20
2019-04-22T06:58:52.268Z,13.30
2019-04-22T07:01:27.592Z,13.30
2019-04-22T07:03:53.656Z,13.40
2019-04-22T07:06:26.410Z,13.50
2019-04-22T07:09:14.282Z,13.60
2019-04-22T07:11:23.667Z,13.70
2019-04-22T07:14:01.513Z,14.10
2019-04-22T07:16:31.956Z,14.30
2019-04-22T07:18:56.621Z,14.30
2019-04-22T07:21:30.613Z,14.20
2019-04-22T07:24:17.501Z,14.40
2019-04-22T07:26:24.175Z,14.50
2019-04-22T07:29:04.097Z,14.60
2019-04-22T07:31:29.010Z,14.60
2019-04-22T07:34:08.441Z,14.70
2019-04-22T07:36:45.605Z,14.70
2019-04-22T07:39:04.198Z,14.80
2019-04-22T07:41:31.717Z,14.80
2019-04-22T07:44:13.163Z,14.90
2019-04-22T07:46:35.456Z,15.10
2019-04-22T07:49:06.647Z,15.20
2019-04-22T07:54:07.533Z,15.40
2019-04-22T07:56:39.123Z,15.60
2019-04-22T07:59:13.997Z,15.50
2019-04-22T08:04:21.312Z,15.60
2019-04-22T08:06:43.644Z,15.60
2019-04-22T08:09:13.923Z,15.70
2019-04-22T08:14:07.566Z,15.80
2019-04-22T08:16:43.957Z,15.90
2019-04-22T08:19:17.000Z,16.10
2019-04-22T08:21:46.938Z,16.20
2019-04-22T08:26:38.323Z,16.40
2019-04-22T08:29:14.495Z,16.60
2019-04-22T08:31:40.372Z,16.70
2019-04-22T08:34:14.140Z,16.80
2019-04-22T08:37:10.314Z,17.00
2019-04-22T08:39:32.562Z,16.90
2019-04-22T08:44:18.605Z,17.10
2019-04-22T08:46:49.015Z,17.20
2019-04-22T08:49:09.929Z,17.40
2019-04-22T08:51:42.796Z,17.80
2019-04-22T08:56:45.653Z,18.80
2019-04-22T08:59:28.358Z,20.20
2019-04-22T09:01:43.495Z,21.20
2019-04-22T09:04:11.977Z,22.90
2019-04-22T09:09:21.207Z,23.50
2019-04-22T09:11:54.758Z,23.10
2019-04-22T09:14:29.737Z,22.70
2019-04-22T09:16:48.490Z,23.50
2019-04-22T09:19:24.062Z,24.60
2019-04-22T09:22:00.572Z,26.10
2019-04-22T09:24:23.442Z,25.20
2019-04-22T09:27:17.866Z,24.10
2019-04-22T09:29:36.764Z,22.80
2019-04-22T09:32:09.544Z,22.70
2019-04-22T09:34:34.957Z,22.90
2019-04-22T09:37:06.143Z,22.70
2019-04-22T09:39:34.706Z,22.60
2019-04-22T09:42:07.878Z,23.00
2019-04-22T09:44:36.174Z,23.80
2019-04-22T09:47:08.126Z,23.30
2019-04-22T09:49:46.644Z,23.90
2019-04-22T09:52:08.449Z,23.70
2019-04-22T09:57:01.834Z,23.50
2019-04-22T09:59:36.314Z,22.90
2019-04-22T10:02:21.446Z,22.80
2019-04-22T10:04:39.777Z,23.30
2019-04-22T10:07:11.137Z,22.90
2019-04-22T10:09:53.174Z,22.20
2019-04-22T10:12:10.198Z,21.50
2019-04-22T10:14:42.500Z,21.30
2019-04-22T10:17:07.798Z,21.50
2019-04-22T10:19:41.239Z,21.70
2019-04-22T10:22:12.128Z,22.20
2019-04-22T10:24:39.181Z,22.20
2019-04-22T10:27:05.986Z,22.30
2019-04-22T10:29:47.233Z,22.40
2019-04-22T10:32:11.292Z,22.10
2019-04-22T10:34:28.922Z,21.20
2019-04-22T10:36:54.422Z,21.30
2019-04-22T10:39:20.321Z,21.20
2019-04-22T10:41:50.595Z,21.10
2019-04-22T10:44:19.687Z,21.70
2019-04-22T10:46:49.737Z,21.80
2019-04-22T10:49:18.559Z,21.40
2019-04-22T10:51:48.610Z,22.10
2019-04-22T10:54:17.773Z,22.90
2019-04-22T10:56:46.704Z,23.30
2019-04-22T10:59:16.434Z,22.90
2019-04-22T11:01:46.529Z,23.20
2019-04-22T11:04:15.509Z,23.70
2019-04-22T11:06:52.091Z,23.00
2019-04-22T11:09:16.202Z,22.10
2019-04-22T11:11:54.217Z,20.90
2019-04-22T11:14:16.825Z,20.40
2019-04-22T11:16:45.724Z,20.20
2019-04-22T11:19:14.551Z,21.10
2019-04-22T11:21:56.116Z,22.20
2019-04-22T11:24:14.846Z,22.90
2019-04-22T11:26:43.186Z,22.70
2019-04-22T11:29:12.111Z,21.70
2019-04-22T11:31:42.115Z,20.90
2019-04-22T11:34:11.319Z,20.40
2019-04-22T11:36:40.870Z,20.30
2019-04-22T11:39:11.146Z,20.30
2019-04-22T11:41:40.253Z,20.70
2019-04-22T11:44:09.555Z,21.00
2019-04-22T11:46:39.213Z,21.30
2019-04-22T11:49:07.978Z,21.00
2019-04-22T11:51:38.083Z,20.40
2019-04-22T11:54:07.244Z,20.00
2019-04-22T11:56:36.915Z,19.70
2019-04-22T11:59:06.637Z,19.60
2019-04-22T12:01:35.028Z,19.50
2019-04-22T12:04:04.219Z,19.50
2019-04-22T12:06:33.748Z,19.40
2019-04-22T12:09:03.868Z,19.40
2019-04-22T12:11:32.772Z,19.30
2019-04-22T12:14:02.187Z,19.20
2019-04-22T12:16:31.646Z,19.20
2019-04-22T12:19:00.909Z,19.40
2019-04-22T12:21:30.960Z,19.60
2019-04-22T12:24:01.024Z,19.50
2019-04-22T12:26:30.635Z,19.50
2019-04-22T12:28:59.451Z,19.30
2019-04-22T12:31:29.294Z,19.40
2019-04-22T12:33:59.331Z,19.90
2019-04-22T12:36:28.675Z,19.70
2019-04-22T12:38:57.937Z,19.40
2019-04-22T12:41:27.795Z,19.40
2019-04-22T12:44:15.975Z,19.40
2019-04-22T12:46:46.015Z,19.50
2019-04-22T12:49:16.336Z,19.70
2019-04-22T12:51:45.406Z,19.90
2019-04-22T12:54:15.195Z,20.00
2019-04-22T12:56:43.968Z,20.00
2019-04-22T12:59:14.001Z,19.90
2019-04-22T13:01:43.031Z,19.90
2019-04-22T13:04:15.551Z,19.90
2019-04-22T13:06:43.971Z,19.90
2019-04-22T13:09:12.904Z,20.10
2019-04-22T13:11:42.690Z,19.90
2019-04-22T13:14:12.715Z,19.80
2019-04-22T13:16:42.839Z,19.80
2019-04-22T13:19:13.699Z,20.00
2019-04-22T13:21:42.743Z,20.10
2019-04-22T13:24:13.120Z,20.40
2019-04-22T13:26:43.078Z,20.40
2019-04-22T13:29:12.767Z,20.10
2019-04-22T13:31:42.426Z,19.90
2019-04-22T13:34:25.561Z,19.70
2019-04-22T13:36:43.664Z,19.80
2019-04-22T13:39:13.304Z,19.80
2019-04-22T13:41:48.741Z,19.90
2019-04-22T13:44:12.875Z,19.80
2019-04-22T13:47:02.110Z,19.80
2019-04-22T13:49:40.700Z,19.90
2019-04-22T13:52:24.369Z,19.80
2019-04-22T13:57:01.678Z,19.70
2019-04-22T13:59:26.091Z,19.80
2019-04-22T14:02:01.456Z,19.80
2019-04-22T14:04:32.672Z,19.80
2019-04-22T14:07:02.882Z,19.70
2019-04-22T14:09:33.597Z,19.50
2019-04-22T14:12:05.670Z,19.40
2019-04-22T14:14:33.708Z,19.30
2019-04-22T14:17:03.001Z,19.30
2019-04-22T14:19:32.283Z,19.30
2019-04-22T14:22:01.957Z,19.40
2019-04-22T14:24:30.174Z,19.40
2019-04-22T14:27:13.893Z,19.40
2019-04-22T14:29:29.499Z,19.30
2019-04-22T14:32:05.269Z,19.20
2019-04-22T14:34:30.255Z,19.30
2019-04-22T14:36:59.410Z,19.40
2019-04-22T14:39:28.431Z,19.60
2019-04-22T14:44:08.381Z,19.70
2019-04-22T14:47:19.609Z,19.90
2019-04-22T14:49:54.326Z,19.80
2019-04-22T14:52:22.796Z,19.70
2019-04-22T14:54:43.399Z,19.90
2019-04-22T14:57:01.137Z,20.00
2019-04-22T14:59:31.173Z,20.00
2019-04-22T15:02:01.433Z,20.10
2019-04-22T15:04:31.079Z,19.90
2019-04-22T15:07:01.159Z,19.90
2019-04-22T15:09:30.153Z,19.80
2019-04-22T15:12:11.130Z,19.90
2019-04-22T15:14:29.891Z,19.90
2019-04-22T15:17:13.129Z,20.00
2019-04-22T15:19:49.726Z,20.10
2019-04-22T15:22:18.823Z,20.00
2019-04-22T15:24:47.596Z,20.00
2019-04-22T15:27:16.415Z,20.10
2019-04-22T15:29:45.200Z,20.10
2019-04-22T15:32:15.319Z,20.00
2019-04-22T15:34:44.573Z,19.80
2019-04-22T15:37:13.949Z,19.70
2019-04-22T15:39:43.687Z,19.70
2019-04-22T15:42:20.173Z,19.50
2019-04-22T15:44:42.328Z,19.40
2019-04-22T15:47:11.256Z,19.30
2019-04-22T15:49:40.270Z,19.20
2019-04-22T15:52:10.457Z,19.20
2019-04-22T15:54:39.579Z,19.20
2019-04-22T15:57:08.896Z,19.10
2019-04-22T15:59:56.284Z,19.10
2019-04-22T16:02:09.968Z,19.10
2019-04-22T16:04:38.874Z,19.10
2019-04-22T16:07:08.615Z,19.10
2019-04-22T16:09:36.810Z,19.00
2019-04-22T16:12:16.329Z,19.00
2019-04-22T16:14:42.004Z,18.90
2019-04-22T16:17:06.712Z,18.80
2019-04-22T16:19:36.942Z,18.80
2019-04-22T16:22:11.190Z,18.70
2019-04-22T16:24:38.252Z,18.70
2019-04-22T16:27:11.773Z,18.60
2019-04-22T16:29:41.355Z,18.50
2019-04-22T16:32:11.416Z,18.40
2019-04-22T16:34:40.365Z,18.40
2019-04-22T16:37:10.470Z,18.30
2019-04-22T16:39:41.960Z,18.20
2019-04-22T16:42:14.458Z,18.20
2019-04-22T16:44:40.722Z,18.10
2019-04-22T16:47:09.976Z,18.00
2019-04-22T16:49:39.281Z,18.00
2019-04-22T16:52:08.163Z,18.00
2019-04-22T16:54:36.964Z,18.00
2019-04-22T16:57:06.009Z,18.00
2019-04-22T16:59:35.201Z,17.90
2019-04-22T17:02:19.002Z,17.90
2019-04-22T17:04:53.809Z,17.80
2019-04-22T17:07:22.734Z,17.80
2019-04-22T17:09:52.145Z,17.70
2019-04-22T17:12:23.740Z,17.60
2019-04-22T17:14:58.018Z,17.60
2019-04-22T17:17:22.415Z,17.50
2019-04-22T17:19:53.281Z,17.40
2019-04-22T17:22:21.783Z,17.40
2019-04-22T17:24:50.806Z,17.30
2019-04-22T17:27:20.226Z,17.30
2019-04-22T17:29:50.450Z,17.20
2019-04-22T17:32:22.951Z,17.10
2019-04-22T17:34:49.888Z,17.10
2019-04-22T17:37:25.827Z,17.00
2019-04-22T17:40:07.299Z,16.90
2019-04-22T17:42:40.550Z,16.80
2019-04-22T17:45:19.135Z,16.70
2019-04-22T17:47:43.215Z,16.60
2019-04-22T17:50:18.303Z,16.50
2019-04-22T17:52:59.450Z,16.50
2019-04-22T17:55:21.409Z,16.40
2019-04-22T17:57:40.902Z,16.50
2019-04-22T18:00:17.211Z,16.20
2019-04-22T18:02:46.014Z,16.20
2019-04-22T18:05:03.742Z,16.10
2019-04-22T18:07:48.871Z,16.10
2019-04-22T18:13:15.736Z,16.10
2019-04-22T18:15:19.140Z,16.10
2019-04-22T18:17:57.052Z,16.10
2019-04-22T18:20:17.528Z,15.90
2019-04-22T18:22:44.581Z,15.90
2019-04-22T18:25:14.096Z,15.80
2019-04-22T18:28:04.189Z,15.70
2019-04-22T18:30:18.740Z,15.70
2019-04-22T18:32:50.655Z,15.70
2019-04-22T18:35:26.493Z,15.70
2019-04-22T18:38:11.328Z,15.70
2019-04-22T18:40:30.588Z,15.60
2019-04-22T18:43:03.699Z,15.50
2019-04-22T18:45:43.789Z,15.50
2019-04-22T18:47:55.469Z,15.40
2019-04-22T18:50:46.644Z,15.30
2019-04-22T18:53:35.214Z,15.30
2019-04-22T18:56:13.851Z,15.30
2019-04-22T18:58:34.346Z,15.30
2019-04-22T19:00:52.538Z,15.20
2019-04-22T19:03:26.319Z,15.20
2019-04-22T19:06:27.481Z,15.20
2019-04-22T19:08:43.064Z,15.20
2019-04-22T19:11:11.243Z,15.20
2019-04-22T19:16:27.422Z,15.10
2019-04-22T19:18:52.509Z,15.20
2019-04-22T19:21:14.920Z,15.10
2019-04-22T19:23:44.845Z,15.10
2019-04-22T19:26:23.212Z,15.00
2019-04-22T19:28:49.796Z,15.00
2019-04-22T19:31:21.879Z,15.00
2019-04-22T19:33:50.072Z,15.00
2019-04-22T19:36:20.637Z,14.90
2019-04-22T19:38:49.798Z,14.70
2019-04-22T19:41:24.140Z,14.70
2019-04-22T19:43:53.280Z,14.70
2019-04-22T19:46:18.278Z,14.60
2019-04-22T19:48:57.828Z,14.60
2019-04-22T19:51:30.861Z,14.60
2019-04-22T19:53:52.417Z,14.50
2019-04-22T19:56:19.071Z,14.40
2019-04-22T19:58:47.656Z,14.40
2019-04-22T20:01:44.121Z,14.40
2019-04-22T20:04:21.923Z,14.40
2019-04-22T20:06:49.145Z,14.40
2019-04-22T20:09:25.048Z,14.30
2019-04-22T20:11:51.778Z,14.30
2019-04-22T20:14:23.491Z,14.30
2019-04-22T20:16:48.732Z,14.30
2019-04-22T20:19:35.724Z,14.30
2019-04-22T20:22:00.026Z,14.20
2019-04-22T20:24:12.947Z,14.00
2019-04-22T20:27:15.235Z,13.80
2019-04-22T20:29:31.069Z,13.70
2019-04-22T20:31:59.196Z,13.70
2019-04-22T20:34:33.006Z,13.40
2019-04-22T20:37:03.640Z,13.40
2019-04-22T20:39:33.432Z,12.40
2019-04-22T20:42:05.587Z,13.40
2019-04-22T20:44:39.570Z,13.30
2019-04-22T20:47:00.034Z,13.40
2019-04-22T20:49:38.385Z,13.40
2019-04-22T20:52:16.418Z,13.40
2019-04-22T20:54:40.223Z,13.40
2019-04-22T20:57:07.371Z,13.40
2019-04-22T20:59:37.934Z,13.50
2019-04-22T21:02:06.605Z,13.50
2019-04-22T21:04:32.325Z,13.50
2019-04-22T21:07:05.085Z,13.40
2019-04-22T21:09:38.185Z,13.40
2019-04-22T21:12:12.495Z,13.40
2019-04-22T21:14:41.326Z,13.40
2019-04-22T21:17:13.790Z,13.40
2019-04-22T21:19:46.455Z,13.30
2019-04-22T21:22:16.224Z,13.40
2019-04-22T21:24:47.538Z,13.40
2019-04-22T21:27:22.257Z,13.30
2019-04-22T21:29:40.318Z,13.20
2019-04-22T21:32:21.671Z,13.20
2019-04-22T21:34:54.033Z,13.20
2019-04-22T21:37:22.180Z,13.20
2019-04-22T21:39:42.004Z,13.10
2019-04-22T21:42:15.881Z,13.10
2019-04-22T21:44:46.975Z,13.10
2019-04-22T21:47:23.910Z,13.00
2019-04-22T21:49:53.490Z,13.10
2019-04-22T21:52:24.495Z,13.00
2019-04-22T21:54:57.124Z,13.00
2019-04-22T21:57:44.098Z,13.00
2019-04-22T22:00:17.677Z,12.80
2019-04-22T22:02:47.671Z,12.70
2019-04-22T22:05:07.863Z,12.70
2019-04-22T22:07:25.662Z,12.70
2019-04-22T22:10:13.490Z,12.60
2019-04-22T22:12:42.269Z,12.60
2019-04-22T22:15:13.271Z,12.60
2019-04-22T22:17:35.528Z,12.70
2019-04-22T22:20:08.138Z,12.60
2019-04-22T22:25:17.941Z,12.50
2019-04-22T22:27:40.853Z,12.40
2019-04-22T22:30:38.814Z,12.40
2019-04-22T22:32:47.808Z,12.40
2019-04-22T22:35:16.856Z,12.40
2019-04-22T22:37:45.006Z,12.40
2019-04-22T22:40:05.533Z,12.40
2019-04-22T22:42:34.552Z,12.40
2019-04-22T22:45:07.855Z,12.30
2019-04-22T22:47:45.636Z,12.30
2019-04-22T22:50:20.641Z,12.30
2019-04-22T22:53:00.860Z,12.30
2019-04-22T22:55:24.920Z,12.30
2019-04-22T22:57:50.053Z,12.30
2019-04-22T23:00:22.331Z,12.20
2019-04-22T23:03:10.771Z,12.20
2019-04-22T23:05:25.758Z,12.20
2019-04-22T23:07:54.173Z,12.20
2019-04-22T23:10:25.404Z,12.10
2019-04-22T23:12:55.577Z,12.10
2019-04-22T23:15:20.363Z,12.10
2019-04-22T23:17:37.026Z,12.10
2019-04-22T23:20:05.745Z,12.00
2019-04-22T23:22:58.967Z,12.00
2019-04-22T23:25:28.157Z,12.00
2019-04-22T23:28:00.012Z,12.00
2019-04-22T23:30:30.037Z,12.00
2019-04-22T23:33:16.226Z,12.00
2019-04-22T23:35:56.355Z,12.00
2019-04-22T23:38:24.192Z,11.90
2019-04-22T23:41:00.076Z,11.90
2019-04-22T23:43:32.646Z,11.90
2019-04-22T23:46:07.006Z,11.90
2019-04-22T23:48:29.070Z,11.80
2019-04-22T23:51:09.231Z,11.80
2019-04-22T23:53:57.973Z,11.70
2019-04-22T23:56:10.992Z,11.70
